< Typhoon 202018 2020 Season Typhoon 202020 >
Typhoon 202019 (GONI)
General InformationTrack Information on Google MapsDetailed Wind InformationForecast History on Google MapsAccess Analytics MapList of All Images || NewsDisaster Info.WeblogTrackbackTyphoon FrontTwiphoonTyphoon Now!Typhoon ImaginationJMA Disaster Info. XMLResourceGoogle EarthGE AnimationAtom FeedGeoJSON
Detalied Best Track (Time Zone = UTC)
Year Month Day Hour Lat. Long. Pressure (hPa) Wind (kt) Class Image Chart
2020 10 27 12 16.1 141.2 1008 30 2 Image Chart
2020 10 27 15 16.2 141.1 1008 30 2 Image Chart
2020 10 27 18 16.2 140.7 1006 30 2 Image Chart
2020 10 27 21 16.2 140.5 1008 30 2 Image Chart
2020 10 28 00 16.4 140.0 1008 30 2 Image Chart
2020 10 28 03 16.4 139.5 1008 30 2 Image Chart
2020 10 28 06 16.4 139.0 1006 30 2 Image Chart
2020 10 28 09 16.5 138.7 1006 30 2 Image Chart
2020 10 28 12 16.6 138.5 1008 30 2 Image Chart
2020 10 28 15 16.5 138.3 1008 30 2 Image Chart
2020 10 28 18 16.7 138.1 1008 35 3 Image Chart
2020 10 28 21 16.6 137.0 1002 35 3 Image Chart
2020 10 29 00 16.6 136.9 1002 35 3 Image Chart
2020 10 29 03 16.6 136.4 1000 40 3 Image Chart
2020 10 29 06 16.8 136.1 1000 40 3 Image Chart
2020 10 29 09 16.8 135.3 998 45 3 Image Chart
2020 10 29 12 16.7 134.6 990 60 4 Image Chart
2020 10 29 15 16.5 134.0 985 65 5 Image Chart
2020 10 29 18 16.4 133.4 980 70 5 Image Chart
2020 10 29 21 16.3 133.0 975 75 5 Image Chart
2020 10 30 00 16.3 132.7 965 85 5 Image Chart
2020 10 30 03 16.4 132.2 960 90 5 Image Chart
2020 10 30 06 16.4 131.6 945 100 5 Image Chart
2020 10 30 09 16.2 131.2 930 105 5 Image Chart
2020 10 30 12 16.1 130.9 915 115 5 Image Chart
2020 10 30 18 15.9 129.9 915 115 5 Image Chart
2020 10 30 21 15.6 129.3 915 115 5 Image Chart
2020 10 31 00 15.3 128.8 915 115 5 Image Chart
2020 10 31 03 15.1 128.3 915 115 5 Image Chart
2020 10 31 06 14.7 127.7 915 115 5 Image Chart
2020 10 31 09 14.4 127.1 915 115 5 Image Chart
2020 10 31 12 14.2 126.5 915 115 5 Image Chart
2020 10 31 15 13.9 125.7 915 115 5 Image Chart
2020 10 31 18 13.7 125.0 905 120 5 Image Chart
2020 10 31 21 13.6 124.3 905 120 5 Image Chart
2020 11 1 00 13.5 123.6 960 90 5 Image Chart
2020 11 1 03 13.5 122.7 965 85 5 Image Chart
2020 11 1 06 13.6 122.0 965 80 5 Image Chart
2020 11 1 09 14.1 121.6 980 65 5 Image Chart
2020 11 1 12 14.3 121.1 992 50 4 Image Chart
2020 11 1 15 14.4 120.7 998 40 3 Image Chart
2020 11 1 18 14.5 120.5 1000 35 3 Image Chart
2020 11 1 21 14.5 119.5 1000 35 3 Image Chart
2020 11 2 00 14.5 118.6 1000 35 3 Image Chart
2020 11 2 03 15.0 118.6 1000 35 3 Image Chart
2020 11 2 06 15.2 118.1 1000 35 3 Image Chart
2020 11 2 09 15.2 117.3 1000 35 3 Image Chart
2020 11 2 12 15.2 116.8 1002 35 3 Image Chart
2020 11 2 15 15.1 116.4 1002 35 3 Image Chart
2020 11 2 18 15.0 116.0 1002 35 3 Image Chart
2020 11 2 21 15.0 115.5 1002 35 3 Image Chart
2020 11 3 00 14.9 115.3 1002 35 3 Image Chart
2020 11 3 03 14.8 115.2 1002 35 3 Image Chart
2020 11 3 06 14.8 115.1 1002 35 3 Image Chart
2020 11 3 09 14.8 115.2 1002 35 3 Image Chart
2020 11 3 12 14.8 114.7 1002 35 3 Image Chart
2020 11 3 15 14.8 114.4 1002 35 3 Image Chart
2020 11 3 18 14.7 114.0 1002 35 3 Image Chart
2020 11 3 21 14.7 113.7 1002 35 3 Image Chart
2020 11 4 00 14.6 113.4 1002 35 3 Image Chart
2020 11 4 03 14.5 113.1 998 40 3 Image Chart
2020 11 4 06 14.4 113.1 998 40 3 Image Chart
2020 11 4 09 14.3 112.9 998 40 3 Image Chart
2020 11 4 12 14.5 112.7 998 40 3 Image Chart
2020 11 4 15 14.4 112.5 998 40 3 Image Chart
2020 11 4 18 14.3 112.3 998 40 3 Image Chart
2020 11 4 21 14.5 112.3 998 40 3 Image Chart
2020 11 5 00 14.5 111.7 998 40 3 Image Chart
2020 11 5 03 14.3 111.0 998 40 3 Image Chart
2020 11 5 06 14.3 111.0 1000 35 3 Image Chart
2020 11 5 09 13.9 111.5 1000 35 3 Image Chart
2020 11 5 12 14.0 111.2 1000 35 3 Image Chart
2020 11 5 15 14.2 110.5 1000 35 3 Image Chart
2020 11 5 18 14.0 111.0 1002 0 2 Image Chart
Japan Meteorological Agency Best Track Data | Correction Date : 2020-11-05
< Typhoon 202018 2020 Season Typhoon 202020 >

Help